Time;durP1;ratioP1;P1;durP2;ratioP2;P2;SDS_P1;SDS_P2;PMS_P1;PMS_P2;Temp;Humidity;BMP_temperature;BMP_pressure;BME280_temperature;BME280_humidity;BME280_pressure;Samples;Min_cycle;Max_cycle;Signal;HPM_P1;HPM_P2
2022/05/20 00:01:53;;;;;;;5.38;1.40;;;12.30;99.90;;;;;;4913575;29;20036;-80
2022/05/20 00:04:19;;;;;;;8.20;1.88;;;12.30;99.90;;;;;;4916955;29;20056;-80
2022/05/20 00:06:45;;;;;;;5.10;2.30;;;12.30;99.90;;;;;;4913966;29;20032;-80
2022/05/20 00:09:11;;;;;;;8.63;1.40;;;12.40;99.90;;;;;;4912533;29;20013;-80
2022/05/20 00:11:37;;;;;;;10.02;2.03;;;12.40;99.90;;;;;;4912811;29;20024;-79
2022/05/20 00:14:05;;;;;;;4.97;1.70;;;12.60;99.90;;;;;;4912809;29;20052;-80
2022/05/20 00:16:33;;;;;;;6.10;1.88;;;12.70;99.90;;;;;;4913440;29;20622;-80
2022/05/20 00:18:59;;;;;;;9.23;1.60;;;12.70;99.90;;;;;;4912659;29;20020;-80
2022/05/20 00:21:25;;;;;;;4.85;1.88;;;12.70;99.90;;;;;;4916381;29;20606;-80
2022/05/20 00:23:50;;;;;;;6.65;1.63;;;12.70;99.90;;;;;;4913178;29;20016;-80
2022/05/20 00:26:16;;;;;;;6.03;2.35;;;12.70;99.90;;;;;;4914072;29;20028;-80
2022/05/20 00:28:46;;;;;;;8.57;2.03;;;12.70;99.90;;;;;;4914918;29;20599;-80
2022/05/20 00:31:12;;;;;;;11.32;2.60;;;12.70;99.90;;;;;;4914246;29;20481;-80
2022/05/20 00:33:38;;;;;;;10.68;2.90;;;12.70;99.90;;;;;;4914914;29;20024;-80
2022/05/20 00:36:04;;;;;;;9.55;2.03;;;12.70;99.90;;;;;;4914390;29;20055;-81
2022/05/20 00:38:30;;;;;;;7.72;2.30;;;12.60;99.90;;;;;;4914477;29;20107;-80
2022/05/20 00:40:59;;;;;;;2.42;1.45;;;12.60;99.90;;;;;;4897437;29;20151;-81
2022/05/20 00:43:26;;;;;;;6.63;1.45;;;12.60;99.90;;;;;;4914451;29;20031;-80
2022/05/20 00:45:53;;;;;;;5.22;1.83;;;12.50;99.90;;;;;;4914371;29;20499;-81
2022/05/20 00:48:20;;;;;;;5.75;1.75;;;12.40;99.90;;;;;;4897485;29;20032;-81
2022/05/20 00:51:00;;;;;;;7.03;1.40;;;12.40;99.90;;;;;;4896774;29;20103;-80
2022/05/20 00:53:32;;;;;;;5.60;1.90;;;12.40;99.90;;;;;;4896798;29;20548;-81
2022/05/20 00:55:58;;;;;;;6.20;1.77;;;12.30;99.90;;;;;;4913777;29;20020;-81
2022/05/20 00:58:27;;;;;;;9.00;1.52;;;12.20;99.90;;;;;;4914064;29;20028;-81
2022/05/20 01:00:55;;;;;;;7.05;1.25;;;12.20;99.90;;;;;;4914259;29;20039;-81
2022/05/20 01:03:26;;;;;;;3.90;1.25;;;12.10;99.90;;;;;;4919089;29;20465;-80
2022/05/20 01:05:54;;;;;;;4.22;1.63;;;11.90;99.90;;;;;;4914027;29;20526;-81
2022/05/20 01:08:32;;;;;;;4.63;1.33;;;11.90;99.90;;;;;;4913310;29;20548;-80
2022/05/20 01:10:58;;;;;;;3.20;1.50;;;11.90;99.90;;;;;;4919821;29;20028;-80
2022/05/20 01:13:26;;;;;;;5.18;1.90;;;11.80;99.90;;;;;;4913842;29;20031;-80
2022/05/20 01:15:53;;;;;;;4.43;1.65;;;11.80;99.90;;;;;;4913761;29;20020;-81
2022/05/20 01:18:20;;;;;;;3.63;1.10;;;11.70;99.90;;;;;;4945884;23;20047;-79
2022/05/20 01:20:51;;;;;;;6.35;1.75;;;11.50;99.90;;;;;;4971107;28;20616;-79
2022/05/20 01:23:22;;;;;;;5.88;1.98;;;11.40;99.90;;;;;;4970377;28;20027;-80
2022/05/20 01:25:50;;;;;;;4.50;1.65;;;11.30;99.90;;;;;;4971179;28;20031;-79
2022/05/20 01:28:18;;;;;;;7.45;1.92;;;11.20;99.90;;;;;;4955197;28;20454;-79
2022/05/20 01:30:49;;;;;;;7.53;1.75;;;11.20;99.90;;;;;;4952018;29;20114;-79
2022/05/20 01:33:37;;;;;;;7.03;1.80;;;11.00;99.90;;;;;;4918947;29;20031;-79
2022/05/20 01:36:06;;;;;;;7.93;2.35;;;10.90;99.90;;;;;;4952010;29;20019;-79
2022/05/20 01:38:33;;;;;;;7.00;2.45;;;10.80;99.90;;;;;;4951509;28;20114;-79
2022/05/20 01:41:08;;;;;;;6.10;1.75;;;10.80;99.90;;;;;;4952217;29;20086;-79
2022/05/20 01:43:52;;;;;;;6.32;1.67;;;10.80;99.90;;;;;;4945515;29;20030;-79
2022/05/20 01:46:49;;;;;;;6.82;2.30;;;10.80;99.90;;;;;;4945518;28;20020;-79
2022/05/20 01:49:28;;;;;;;7.07;2.30;;;10.80;99.90;;;;;;4926518;29;20028;-79
2022/05/20 01:52:21;;;;;;;7.57;2.00;;;10.70;99.90;;;;;;4946020;29;20062;-81
2022/05/20 01:54:52;;;;;;;6.15;2.08;;;10.70;99.90;;;;;;4947054;29;20031;-81
2022/05/20 01:57:24;;;;;;;3.47;2.15;;;10.70;99.90;;;;;;4951663;28;20019;-80
2022/05/20 01:59:58;;;;;;;6.57;2.55;;;10.70;99.90;;;;;;4951083;29;20078;-81
2022/05/20 02:02:33;;;;;;;6.53;2.88;;;10.60;99.90;;;;;;4931350;29;20059;-78
2022/05/20 02:05:30;;;;;;;7.85;2.90;;;10.60;99.90;;;;;;4931469;29;20031;-81
2022/05/20 02:08:04;;;;;;;10.65;2.35;;;10.50;99.90;;;;;;4933169;29;20118;-81
2022/05/20 02:10:47;;;;;;;5.85;2.35;;;10.50;99.90;;;;;;4951458;29;20106;-81
2022/05/20 02:13:16;;;;;;;6.75;2.15;;;10.50;99.90;;;;;;4951344;29;20027;-81
2022/05/20 02:15:47;;;;;;;4.53;2.25;;;10.60;99.90;;;;;;4927692;29;20424;-81
2022/05/20 02:18:19;;;;;;;9.63;3.08;;;10.70;99.90;;;;;;4943903;23;20393;-78
2022/05/20 02:20:52;;;;;;;5.97;2.65;;;10.70;99.90;;;;;;4921966;29;20036;-78
2022/05/20 02:23:28;;;;;;;4.60;2.55;;;10.70;99.90;;;;;;4898433;29;20434;-78
2022/05/20 02:26:00;;;;;;;4.30;2.33;;;10.70;99.90;;;;;;4915133;29;20024;-77
2022/05/20 02:28:55;;;;;;;5.32;2.45;;;10.80;99.90;;;;;;4911692;29;20400;-78
2022/05/20 02:31:42;;;;;;;11.27;2.90;;;10.90;99.90;;;;;;4929801;29;20047;-77
2022/05/20 02:34:08;;;;;;;6.35;3.17;;;10.90;99.90;;;;;;4932646;29;20062;-78
2022/05/20 02:36:35;;;;;;;8.63;2.85;;;10.90;99.90;;;;;;4934949;29;20054;-77
2022/05/20 02:39:03;;;;;;;4.85;2.60;;;11.00;99.90;;;;;;4929649;29;20024;-77
2022/05/20 02:41:29;;;;;;;5.22;2.15;;;11.00;99.90;;;;;;4936267;29;20090;-78
2022/05/20 02:43:55;;;;;;;4.63;2.13;;;11.00;99.90;;;;;;4936349;29;20028;-78
2022/05/20 02:46:21;;;;;;;3.40;2.10;;;11.00;99.90;;;;;;4936439;29;20028;-78
2022/05/20 02:48:47;;;;;;;6.68;3.28;;;11.10;99.90;;;;;;4935443;29;20032;-77
2022/05/20 02:51:16;;;;;;;7.85;3.25;;;11.00;99.90;;;;;;4935935;29;20026;-78
2022/05/20 02:53:43;;;;;;;8.02;3.00;;;11.00;99.90;;;;;;4919032;29;20528;-78
2022/05/20 02:56:09;;;;;;;9.48;2.67;;;11.00;99.90;;;;;;4935825;29;20087;-77
2022/05/20 03:04:11;;;;;;;7.85;2.35;;;11.10;99.90;;;;;;4935176;29;20453;-78
2022/05/20 03:06:40;;;;;;;5.63;2.50;;;11.10;99.90;;;;;;4935741;29;20038;-78
2022/05/20 03:09:07;;;;;;;5.47;2.40;;;11.10;99.90;;;;;;4918891;29;20016;-78
2022/05/20 03:11:34;;;;;;;6.35;3.08;;;11.10;99.90;;;;;;4935779;29;20028;-78
2022/05/20 03:14:01;;;;;;;4.78;2.38;;;11.10;99.90;;;;;;4935431;29;20035;-78
2022/05/20 03:18:58;;;;;;;7.57;3.10;;;11.20;99.90;;;;;;4964558;28;20039;-80
2022/05/20 03:21:25;;;;;;;6.55;2.97;;;11.20;99.90;;;;;;4973217;28;20026;-80
2022/05/20 03:23:51;;;;;;;9.60;3.65;;;11.20;99.90;;;;;;4973505;28;20022;-80
2022/05/20 03:26:18;;;;;;;7.70;3.20;;;11.20;99.90;;;;;;4949533;28;20081;-80
2022/05/20 03:28:45;;;;;;;6.75;2.42;;;11.10;99.90;;;;;;4953604;28;20023;-80
2022/05/20 03:31:11;;;;;;;5.22;2.83;;;11.20;99.90;;;;;;4953747;29;20020;-81
2022/05/20 03:33:40;;;;;;;7.70;2.95;;;11.10;99.90;;;;;;4953741;29;20027;-80
2022/05/20 03:36:06;;;;;;;9.50;2.85;;;11.10;99.90;;;;;;4953678;29;20081;-81
2022/05/20 03:38:33;;;;;;;13.20;3.15;;;11.00;99.90;;;;;;4936379;29;20024;-80
2022/05/20 03:40:59;;;;;;;9.88;3.42;;;11.00;99.90;;;;;;4953860;29;20034;-80
2022/05/20 03:43:26;;;;;;;6.72;3.13;;;11.00;99.90;;;;;;4953570;29;20016;-81
2022/05/20 03:45:52;;;;;;;9.13;3.10;;;11.00;99.90;;;;;;4953092;29;20023;-80
2022/05/20 03:48:18;;;;;;;11.57;3.20;;;11.10;99.90;;;;;;4952789;28;20023;-80
2022/05/20 03:50:44;;;;;;;8.57;2.95;;;11.20;99.90;;;;;;4953140;29;20027;-79
2022/05/20 03:53:10;;;;;;;6.05;2.90;;;11.10;99.90;;;;;;4953064;29;20038;-80
2022/05/20 03:55:36;;;;;;;7.30;2.95;;;11.10;99.90;;;;;;4953641;29;20106;-81
2022/05/20 03:58:02;;;;;;;8.13;2.72;;;11.10;99.90;;;;;;4946808;29;20465;-80
2022/05/20 04:00:28;;;;;;;9.48;3.40;;;11.10;99.90;;;;;;4952658;29;20105;-80
2022/05/20 04:02:53;;;;;;;6.18;3.60;;;11.10;99.90;;;;;;4952417;29;20030;-80
2022/05/20 04:05:19;;;;;;;10.05;3.58;;;11.20;99.90;;;;;;4953334;29;20012;-80
2022/05/20 04:07:45;;;;;;;6.25;3.17;;;11.20;99.90;;;;;;4952593;28;20042;-80
2022/05/20 04:10:11;;;;;;;5.95;3.17;;;11.30;99.90;;;;;;4952576;29;20027;-80
2022/05/20 04:12:40;;;;;;;10.43;3.00;;;11.40;99.90;;;;;;4953533;29;20027;-80
2022/05/20 04:15:09;;;;;;;6.10;3.13;;;11.40;99.90;;;;;;4935337;29;20448;-80
2022/05/20 04:17:35;;;;;;;7.68;3.08;;;11.40;99.90;;;;;;4958711;23;20126;-78
2022/05/20 04:20:01;;;;;;;7.05;3.30;;;11.40;99.90;;;;;;4880203;29;20643;-78
2022/05/20 04:22:34;;;;;;;7.80;3.35;;;11.40;99.90;;;;;;4898222;29;20556;-78
2022/05/20 04:25:00;;;;;;;11.60;3.75;;;11.50;99.90;;;;;;4899262;29;20068;-78
2022/05/20 04:27:28;;;;;;;10.45;3.80;;;11.50;99.90;;;;;;4897420;29;20067;-78
2022/05/20 04:29:55;;;;;;;11.52;3.97;;;11.50;99.90;;;;;;4897265;29;20025;-78
2022/05/20 04:32:21;;;;;;;9.40;3.33;;;11.60;99.90;;;;;;4897379;29;20512;-78
2022/05/20 04:34:47;;;;;;;7.93;3.28;;;11.60;99.90;;;;;;4896993;29;20025;-78
2022/05/20 04:37:16;;;;;;;7.97;2.92;;;11.70;99.90;;;;;;4897016;29;20132;-78
2022/05/20 04:39:42;;;;;;;9.15;3.35;;;11.80;99.90;;;;;;4897039;29;20095;-77
2022/05/20 04:47:41;;;;;;;6.15;2.90;;;11.90;99.90;;;;;;4898989;29;20039;-78
2022/05/20 04:50:08;;;;;;;9.25;3.75;;;11.90;99.90;;;;;;4896739;29;20095;-78
2022/05/20 04:52:35;;;;;;;7.85;3.70;;;11.90;99.90;;;;;;4896731;29;20021;-78
2022/05/20 04:55:01;;;;;;;9.27;3.42;;;11.90;99.90;;;;;;4897005;29;20028;-78
2022/05/20 04:57:29;;;;;;;8.93;3.65;;;11.90;99.90;;;;;;4897272;29;20020;-77
2022/05/20 04:59:59;;;;;;;10.68;3.80;;;11.90;99.90;;;;;;4896260;29;20028;-78
2022/05/20 05:02:26;;;;;;;6.85;3.08;;;12.00;99.90;;;;;;4896795;29;20027;-78
2022/05/20 05:04:52;;;;;;;11.27;3.70;;;12.00;99.90;;;;;;4898482;29;20506;-78
2022/05/20 05:07:18;;;;;;;9.40;3.47;;;12.10;99.90;;;;;;4896547;29;20434;-78
2022/05/20 05:09:45;;;;;;;8.15;3.67;;;12.20;99.90;;;;;;4896652;29;20466;-78
2022/05/20 05:12:12;;;;;;;11.57;4.03;;;12.20;99.90;;;;;;4896929;29;20031;-78
2022/05/20 05:14:46;;;;;;;8.20;3.10;;;12.20;99.90;;;;;;4896541;29;20021;-78
2022/05/20 05:17:13;;;;;;;9.20;4.35;;;12.20;99.90;;;;;;4925840;23;20067;-80
2022/05/20 05:19:41;;;;;;;6.05;3.03;;;12.30;99.90;;;;;;4933501;29;20501;-80
2022/05/20 05:22:07;;;;;;;4.55;2.88;;;12.30;99.90;;;;;;4933331;29;20489;-80
2022/05/20 05:24:35;;;;;;;9.63;3.20;;;12.30;99.90;;;;;;4933711;29;20015;-80
2022/05/20 05:27:01;;;;;;;10.52;2.95;;;12.30;99.90;;;;;;4928956;29;20034;-80
2022/05/20 05:29:27;;;;;;;9.18;3.72;;;12.30;99.90;;;;;;4914734;29;20020;-80
2022/05/20 05:31:53;;;;;;;7.00;3.22;;;12.30;99.90;;;;;;4915021;29;20032;-81
2022/05/20 05:34:19;;;;;;;8.05;4.05;;;12.30;99.90;;;;;;4914744;29;20481;-81
2022/05/20 05:36:45;;;;;;;7.72;3.08;;;12.40;99.90;;;;;;4914956;29;20024;-80
2022/05/20 05:39:11;;;;;;;11.45;2.78;;;12.50;99.90;;;;;;4914594;29;20028;-81
2022/05/20 05:41:37;;;;;;;8.10;3.47;;;12.50;99.90;;;;;;4914872;29;20068;-80
2022/05/20 05:44:03;;;;;;;10.15;3.95;;;12.60;99.90;;;;;;4915111;29;20027;-80
2022/05/20 05:46:30;;;;;;;8.60;3.30;;;12.60;99.90;;;;;;4914802;29;20020;-80
2022/05/20 05:48:59;;;;;;;7.75;2.80;;;12.70;99.90;;;;;;4911805;29;20032;-81
2022/05/20 05:51:25;;;;;;;7.22;2.92;;;12.80;99.90;;;;;;4897762;29;20489;-81
2022/05/20 05:53:52;;;;;;;11.50;3.50;;;12.90;99.90;;;;;;4914705;29;20024;-80
2022/05/20 05:56:18;;;;;;;8.25;3.28;;;13.00;99.90;;;;;;4914615;29;20354;-81
2022/05/20 05:58:43;;;;;;;8.88;3.03;;;13.00;99.90;;;;;;4914598;29;20032;-81
2022/05/20 06:01:10;;;;;;;6.97;3.33;;;13.10;99.90;;;;;;4897475;29;20103;-80
2022/05/20 06:03:35;;;;;;;9.65;2.83;;;13.30;99.90;;;;;;4911693;29;20024;-81
2022/05/20 06:06:01;;;;;;;6.43;3.08;;;13.40;99.90;;;;;;4914566;29;20024;-81
2022/05/20 06:08:27;;;;;;;6.45;3.25;;;13.60;99.90;;;;;;4914480;29;20545;-81
2022/05/20 06:10:53;;;;;;;6.85;2.92;;;13.80;99.90;;;;;;4917116;29;20038;-81
2022/05/20 06:13:27;;;;;;;11.48;3.88;;;14.00;99.90;;;;;;4918002;29;20052;-81
2022/05/20 06:15:56;;;;;;;8.88;2.95;;;14.00;99.90;;;;;;4917676;29;20070;-81
2022/05/20 06:18:22;;;;;;;6.13;2.95;;;14.00;99.90;;;;;;4933811;23;20044;-78
2022/05/20 06:20:48;;;;;;;7.18;2.22;;;14.00;99.90;;;;;;4882906;29;20096;-78
2022/05/20 06:23:15;;;;;;;8.25;2.90;;;14.00;99.90;;;;;;4886838;29;20083;-78
2022/05/20 06:25:42;;;;;;;10.10;2.28;;;14.00;99.90;;;;;;4899541;29;20033;-78
2022/05/20 06:28:10;;;;;;;8.82;2.95;;;14.00;99.90;;;;;;4902853;29;20025;-78
2022/05/20 06:30:37;;;;;;;10.38;2.88;;;14.00;99.90;;;;;;4901344;29;20088;-78
2022/05/20 06:33:03;;;;;;;6.50;2.33;;;14.00;99.90;;;;;;4899308;29;20032;-78
2022/05/20 06:40:59;;;;;;;12.75;2.90;;;13.70;99.90;;;;;;4907894;29;20047;-79
2022/05/20 06:43:26;;;;;;;8.43;1.92;;;13.60;99.90;;;;;;4900995;29;20033;-79
2022/05/20 06:45:56;;;;;;;4.75;2.40;;;13.60;99.90;;;;;;4903463;29;20025;-79
2022/05/20 06:48:22;;;;;;;6.78;2.65;;;13.70;99.90;;;;;;4898598;29;20087;-79
2022/05/20 06:50:48;;;;;;;7.25;2.38;;;13.70;99.90;;;;;;4905558;29;20031;-79
2022/05/20 06:53:14;;;;;;;4.78;2.33;;;13.80;99.90;;;;;;4882515;29;20032;-79
2022/05/20 06:55:40;;;;;;;7.53;2.40;;;13.90;99.90;;;;;;4905401;29;20029;-79
2022/05/20 06:58:06;;;;;;;6.63;2.75;;;13.90;99.90;;;;;;4901531;29;20025;-79
2022/05/20 07:00:32;;;;;;;11.52;2.70;;;13.90;99.90;;;;;;4902532;29;20032;-79
2022/05/20 07:02:57;;;;;;;5.47;2.15;;;14.00;99.90;;;;;;4898636;29;20029;-79
2022/05/20 07:05:23;;;;;;;11.93;3.10;;;14.00;99.90;;;;;;4898806;29;20020;-79
2022/05/20 07:07:49;;;;;;;8.88;2.65;;;14.00;99.90;;;;;;4898685;29;20077;-79
2022/05/20 07:10:16;;;;;;;4.05;2.50;;;13.90;99.90;;;;;;4898704;29;20039;-79
2022/05/20 07:12:42;;;;;;;4.07;2.08;;;13.90;99.90;;;;;;4898658;29;20033;-79
2022/05/20 07:15:08;;;;;;;7.93;3.40;;;13.90;99.90;;;;;;4898357;29;20028;-79
2022/05/20 07:17:35;;;;;;;6.50;2.50;;;14.00;99.90;;;;;;4923747;23;20052;-81
2022/05/20 07:20:03;;;;;;;8.43;2.38;;;14.10;99.90;;;;;;4914538;29;20028;-81
2022/05/20 07:22:29;;;;;;;8.60;2.78;;;14.00;99.90;;;;;;4905976;29;20067;-82
2022/05/20 07:24:55;;;;;;;10.60;2.88;;;14.10;99.90;;;;;;4898322;29;20088;-80
2022/05/20 07:27:21;;;;;;;5.72;2.75;;;14.10;99.90;;;;;;4915531;29;20027;-80
2022/05/20 07:29:47;;;;;;;7.15;2.38;;;14.10;99.90;;;;;;4914982;29;20032;-80
2022/05/20 07:32:13;;;;;;;9.20;3.15;;;14.10;99.90;;;;;;4901601;29;20172;-80
2022/05/20 07:34:38;;;;;;;10.93;3.88;;;14.10;99.90;;;;;;4898982;29;20118;-80
2022/05/20 07:37:05;;;;;;;8.20;3.28;;;14.00;99.90;;;;;;4915518;29;20416;-80
2022/05/20 07:39:30;;;;;;;15.60;3.70;;;14.00;99.90;;;;;;4915652;29;20103;-80
2022/05/20 07:41:56;;;;;;;14.43;3.95;;;14.00;99.90;;;;;;4915504;29;20480;-80
2022/05/20 07:44:22;;;;;;;12.88;3.47;;;13.90;99.90;;;;;;4916305;29;20104;-80
2022/05/20 07:46:48;;;;;;;10.20;3.38;;;14.00;99.90;;;;;;4915766;29;20036;-80
2022/05/20 07:49:13;;;;;;;9.40;3.85;;;14.00;99.90;;;;;;4916388;29;20482;-81
2022/05/20 07:51:44;;;;;;;11.50;4.40;;;14.10;99.90;;;;;;4898704;29;20114;-81
2022/05/20 07:54:15;;;;;;;7.37;2.80;;;14.00;99.90;;;;;;4916251;29;20684;-81
2022/05/20 07:56:49;;;;;;;8.57;3.30;;;14.00;99.90;;;;;;4915874;29;20262;-81
2022/05/20 07:59:42;;;;;;;5.35;2.75;;;14.00;99.90;;;;;;4903556;29;20028;-80
2022/05/20 08:02:09;;;;;;;9.85;4.00;;;14.10;99.90;;;;;;4904616;29;20036;-81
2022/05/20 08:04:53;;;;;;;6.75;4.20;;;14.00;99.90;;;;;;4915394;29;20078;-81
2022/05/20 08:07:20;;;;;;;10.18;3.67;;;14.00;99.90;;;;;;4916089;29;20574;-80
2022/05/20 08:09:47;;;;;;;8.20;3.05;;;13.90;99.90;;;;;;4915847;29;20024;-80
2022/05/20 08:12:13;;;;;;;6.85;2.05;;;13.80;99.90;;;;;;4915648;29;20476;-80
2022/05/20 08:14:39;;;;;;;7.30;2.40;;;13.60;99.90;;;;;;4915583;29;20095;-80
2022/05/20 08:17:05;;;;;;;7.03;2.63;;;13.50;99.90;;;;;;4916085;29;20160;-80
2022/05/20 08:19:33;;;;;;;6.32;1.75;;;13.40;99.90;;;;;;4915287;29;20028;-80
2022/05/20 08:21:59;;;;;;;4.00;1.40;;;13.20;99.90;;;;;;4915470;29;20036;-80
2022/05/20 08:24:25;;;;;;;2.72;1.42;;;13.00;99.90;;;;;;4915627;29;20396;-80
2022/05/20 08:26:51;;;;;;;3.30;1.65;;;12.80;99.90;;;;;;4898506;29;20032;-80
2022/05/20 08:29:18;;;;;;;2.17;1.10;;;12.80;99.90;;;;;;4915036;29;20008;-81
2022/05/20 08:31:45;;;;;;;2.05;0.65;;;12.70;99.90;;;;;;4915406;29;20469;-81
2022/05/20 08:34:11;;;;;;;4.65;0.85;;;12.60;99.90;;;;;;4913913;29;20484;-81
2022/05/20 08:36:38;;;;;;;3.45;0.80;;;12.50;99.90;;;;;;4915127;29;20115;-80
2022/05/20 08:39:05;;;;;;;4.40;0.98;;;12.40;99.90;;;;;;4915310;29;20110;-81
2022/05/20 08:41:41;;;;;;;0.95;0.40;;;12.30;99.90;;;;;;4915145;29;20477;-80
2022/05/20 08:44:12;;;;;;;0.30;0.30;;;12.00;99.90;;;;;;4914999;29;21609;-81
2022/05/20 08:46:39;;;;;;;0.60;0.20;;;11.90;99.90;;;;;;4915123;29;20476;-81
2022/05/20 08:49:08;;;;;;;2.20;0.50;;;11.80;99.90;;;;;;4915263;29;20024;-81
2022/05/20 08:51:34;;;;;;;1.23;0.57;;;11.70;99.90;;;;;;4898358;29;20512;-80
2022/05/20 08:54:02;;;;;;;1.60;0.52;;;11.60;99.90;;;;;;4915126;29;20052;-81
2022/05/20 08:56:28;;;;;;;2.67;0.60;;;11.60;99.90;;;;;;4903140;29;20078;-82
2022/05/20 08:59:04;;;;;;;0.65;0.57;;;11.50;99.90;;;;;;4898147;29;20660;-81
2022/05/20 09:01:40;;;;;;;0.38;0.30;;;11.40;99.90;;;;;;4915084;29;20067;-82
2022/05/20 09:04:11;;;;;;;1.48;0.40;;;11.30;99.90;;;;;;4914234;29;20028;-83
2022/05/20 09:07:00;;;;;;;0.53;0.50;;;11.30;99.90;;;;;;4897813;29;20024;-82
2022/05/20 09:09:38;;;;;;;4.70;0.95;;;11.30;99.90;;;;;;4929303;29;20402;-83
2022/05/20 09:12:04;;;;;;;2.80;0.70;;;11.30;99.90;;;;;;4915063;29;20086;-83
2022/05/20 09:17:15;;;;;;;3.70;0.75;;;11.30;99.90;;;;;;4915185;29;20031;-83
2022/05/20 09:20:02;;;;;;;0.57;0.50;;;11.20;99.90;;;;;;4898846;29;20465;-82
2022/05/20 09:22:31;;;;;;;1.52;0.52;;;11.30;99.90;;;;;;4897946;29;20493;-84
2022/05/20 09:24:57;;;;;;;3.80;0.57;;;11.30;99.90;;;;;;4896478;29;20028;-83
2022/05/20 09:27:33;;;;;;;1.98;0.82;;;11.20;99.90;;;;;;4888638;29;20028;-83
2022/05/20 09:30:01;;;;;;;3.38;0.52;;;11.20;99.90;;;;;;4910247;29;20079;-83
2022/05/20 09:32:40;;;;;;;1.05;0.70;;;11.20;99.90;;;;;;4900708;29;20466;-83
2022/05/20 09:35:23;;;;;;;2.30;0.60;;;11.10;99.90;;;;;;4912636;29;20035;-83
2022/05/20 09:37:52;;;;;;;1.05;0.88;;;11.10;99.90;;;;;;4914148;29;20028;-83
2022/05/20 09:40:36;;;;;;;1.23;0.82;;;11.00;99.90;;;;;;4920163;29;20106;-84
2022/05/20 09:43:35;;;;;;;1.58;0.75;;;10.90;99.90;;;;;;4909894;29;20063;-84
2022/05/20 09:46:03;;;;;;;2.50;1.10;;;10.90;99.90;;;;;;4917179;29;20020;-83
2022/05/20 09:49:01;;;;;;;6.72;0.93;;;10.90;99.90;;;;;;4917785;29;20020;-84
2022/05/20 09:51:35;;;;;;;3.03;0.90;;;10.80;99.90;;;;;;4918202;29;20028;-85
2022/05/20 09:54:21;;;;;;;4.00;0.80;;;10.80;99.90;;;;;;4915659;29;20100;-85
2022/05/20 09:57:21;;;;;;;1.13;0.85;;;10.70;99.90;;;;;;4919115;29;20022;-82
2022/05/20 09:59:50;;;;;;;1.65;0.90;;;10.80;99.90;;;;;;4917788;29;20051;-81
2022/05/20 10:02:34;;;;;;;0.65;0.60;;;10.80;99.90;;;;;;4916602;29;20073;-79
2022/05/20 10:05:03;;;;;;;1.73;0.52;;;10.80;99.90;;;;;;4913175;29;20063;-83
2022/05/20 10:07:41;;;;;;;0.50;0.45;;;10.80;99.90;;;;;;4915694;29;20036;-81
2022/05/20 10:10:17;;;;;;;0.90;0.47;;;10.70;99.90;;;;;;4911281;29;20422;-81
2022/05/20 10:12:47;;;;;;;4.60;0.60;;;10.60;99.90;;;;;;4924109;29;20087;-80
2022/05/20 10:15:31;;;;;;;3.15;0.80;;;10.60;99.90;;;;;;4915274;29;20034;-82
2022/05/20 10:18:03;;;;;;;0.50;0.40;;;10.60;99.90;;;;;;4914641;29;20044;-81
2022/05/20 10:21:00;;;;;;;1.70;0.52;;;10.70;99.90;;;;;;4899811;29;20047;-82
2022/05/20 10:23:36;;;;;;;1.00;0.43;;;10.70;99.90;;;;;;4866648;29;20036;-84
2022/05/20 10:26:22;;;;;;;1.58;0.93;;;10.70;99.90;;;;;;4897346;29;20033;-84
2022/05/20 10:34:40;;;;;;;2.20;0.80;;;11.00;99.90;;;;;;4918017;29;20059;-84
2022/05/20 10:37:47;;;;;;;0.50;0.50;;;11.00;99.90;;;;;;4917441;29;20020;-84
2022/05/20 10:40:35;;;;;;;1.05;0.70;;;11.20;99.90;;;;;;4894856;29;20080;-84
2022/05/20 10:43:26;;;;;;;4.25;0.80;;;11.40;99.90;;;;;;4912636;29;20492;-84
2022/05/20 10:49:15;;;;;;;2.97;0.70;;;11.60;99.90;;;;;;4917318;29;20518;-84
2022/05/20 10:51:54;;;;;;;3.50;0.98;;;11.80;99.90;;;;;;4916537;29;20025;-83
2022/05/20 10:54:45;;;;;;;1.00;0.70;;;12.10;99.90;;;;;;4917238;29;20107;-83
2022/05/20 10:57:10;;;;;;;1.45;0.90;;;12.40;99.90;;;;;;4915841;29;20028;-82
2022/05/20 11:00:10;;;;;;;1.90;0.70;;;12.60;99.90;;;;;;4917148;29;20031;-81
2022/05/20 11:03:01;;;;;;;3.53;0.63;;;12.70;99.90;;;;;;4916951;29;20044;-82
2022/05/20 11:05:57;;;;;;;2.65;0.52;;;12.80;99.90;;;;;;4916083;29;20099;-81
2022/05/20 11:08:53;;;;;;;1.10;0.30;;;12.70;99.90;;;;;;4912023;29;20103;-81
2022/05/20 11:11:25;;;;;;;2.35;0.65;;;12.80;99.90;;;;;;4913553;29;20087;-80
2022/05/20 11:13:58;;;;;;;2.20;0.70;;;12.80;99.90;;;;;;4916763;29;20047;-81
2022/05/20 11:16:48;;;;;;;1.00;0.50;;;12.80;99.90;;;;;;4910536;29;20545;-81
2022/05/20 11:19:45;;;;;;;2.47;0.90;;;12.90;99.90;;;;;;4910102;29;20044;-80
2022/05/20 11:22:13;;;;;;;2.33;0.63;;;12.80;99.90;;;;;;4895751;29;20036;-81
2022/05/20 11:25:13;;;;;;;1.08;0.63;;;12.80;99.90;;;;;;4931122;29;20067;-81
2022/05/20 11:28:01;;;;;;;2.33;0.70;;;12.60;99.90;;;;;;4895836;29;20039;-82
2022/05/20 11:30:49;;;;;;;3.50;0.77;;;12.50;99.90;;;;;;4915432;29;20024;-81
2022/05/20 11:33:50;;;;;;;2.15;0.73;;;12.30;99.90;;;;;;4899600;29;20036;-80
2022/05/20 11:36:37;;;;;;;1.95;1.00;;;12.30;99.90;;;;;;4916582;29;20055;-81
2022/05/20 11:39:26;;;;;;;3.13;1.05;;;12.50;99.90;;;;;;4909666;29;20048;-81
2022/05/20 11:42:18;;;;;;;0.95;0.50;;;12.60;99.90;;;;;;4909258;29;20047;-81
2022/05/20 11:45:20;;;;;;;0.75;0.63;;;12.70;99.90;;;;;;4911678;29;20478;-81
2022/05/20 11:47:54;;;;;;;1.65;0.77;;;12.90;99.90;;;;;;4913803;29;20033;-81
2022/05/20 11:50:29;;;;;;;2.05;0.65;;;12.90;99.90;;;;;;4916020;29;20500;-82
2022/05/20 11:53:13;;;;;;;3.58;0.98;;;13.10;99.90;;;;;;4916308;29;20024;-81
2022/05/20 11:55:51;;;;;;;1.05;0.65;;;13.30;99.90;;;;;;4911322;29;20075;-81
2022/05/20 11:58:33;;;;;;;1.58;0.70;;;13.50;99.90;;;;;;4899348;29;20067;-81
2022/05/20 12:01:00;;;;;;;1.95;0.60;;;13.70;99.90;;;;;;4910251;29;20380;-81
2022/05/20 12:04:06;;;;;;;2.90;0.90;;;13.90;99.90;;;;;;4915465;29;20048;-80
2022/05/20 12:06:24;;;;;;;4.53;0.80;;;13.90;99.90;;;;;;4909798;29;20030;-81
2022/05/20 12:08:56;;;;;;;2.58;0.57;;;14.10;99.90;;;;;;4915654;29;20068;-81
2022/05/20 12:11:29;;;;;;;3.53;0.80;;;14.40;99.90;;;;;;4915809;29;20117;-80
2022/05/20 12:14:05;;;;;;;1.45;0.95;;;14.60;99.90;;;;;;4916016;29;20111;-81
2022/05/20 12:16:51;;;;;;;4.03;1.13;;;14.70;99.90;;;;;;4915916;29;20056;-81
2022/05/20 12:25:37;;;;;;;2.40;0.70;;;15.40;99.90;;;;;;4915288;29;20134;-81
2022/05/20 12:28:28;;;;;;;0.88;0.70;;;15.80;99.90;;;;;;4929742;29;20013;-81
2022/05/20 12:31:16;;;;;;;1.23;0.80;;;15.80;99.90;;;;;;4898519;29;20058;-81
2022/05/20 12:33:57;;;;;;;1.38;0.60;;;15.60;99.90;;;;;;4912019;29;20477;-81
2022/05/20 12:36:23;;;;;;;1.33;0.90;;;15.60;99.90;;;;;;4908106;29;20035;-80
2022/05/20 12:38:49;;;;;;;2.15;0.70;;;15.70;99.90;;;;;;4915336;29;20020;-81
2022/05/20 12:41:50;;;;;;;1.35;0.77;;;15.80;99.90;;;;;;4915003;29;20556;-80
2022/05/20 12:44:15;;;;;;;3.20;0.55;;;16.00;99.90;;;;;;4892994;29;20384;-81
2022/05/20 12:47:19;;;;;;;1.55;0.40;;;16.40;99.90;;;;;;4915120;29;20469;-81
2022/05/20 12:49:47;;;;;;;0.73;0.40;;;16.90;99.90;;;;;;4914364;29;20024;-81
2022/05/20 12:52:29;;;;;;;0.95;0.50;;;17.20;99.90;;;;;;4914786;29;20048;-81
2022/05/20 12:55:11;;;;;;;0.98;0.40;;;17.50;99.90;;;;;;4914872;29;20054;-82
2022/05/20 12:57:46;;;;;;;;;;;17.80;99.90;;;;;;4915103;29;20029;-81
2022/05/20 13:00:14;;;;;;;0.65;0.60;;;18.30;99.90;;;;;;4915007;29;20001;-81
2022/05/20 13:02:44;;;;;;;0.40;0.40;;;18.70;99.90;;;;;;4891979;29;20036;-82
2022/05/20 13:05:32;;;;;;;0.68;0.68;;;19.10;99.90;;;;;;4914275;29;20055;-81
2022/05/20 13:08:00;;;;;;;2.10;0.40;;;19.60;99.90;;;;;;4914850;29;20020;-81
2022/05/20 13:10:34;;;;;;;1.13;0.50;;;21.80;99.90;;;;;;4915287;29;20417;-82
2022/05/20 13:13:15;;;;;;;0.35;0.30;;;24.60;92.80;;;;;;4914618;29;20032;-82
2022/05/20 13:15:49;;;;;;;1.73;0.50;;;26.60;71.20;;;;;;4914696;29;20032;-83
2022/05/20 13:18:22;;;;;;;1.05;0.50;;;27.60;67.90;;;;;;4915403;29;20080;-82
2022/05/20 13:20:52;;;;;;;0.20;0.20;;;27.40;64.80;;;;;;4914171;29;20035;-83
2022/05/20 13:23:25;;;;;;;0.75;0.30;;;28.70;63.70;;;;;;4914816;29;20020;-82
2022/05/20 13:25:51;;;;;;;0.30;0.20;;;28.80;55.90;;;;;;4897860;29;20441;-84
2022/05/20 13:28:26;;;;;;;1.27;0.30;;;28.50;58.00;;;;;;4913952;29;20489;-83
2022/05/20 13:31:04;;;;;;;0.55;0.30;;;27.90;57.50;;;;;;4909349;29;20043;-83
2022/05/20 13:33:30;;;;;;;1.83;0.43;;;28.90;56.60;;;;;;4913563;29;20528;-82
2022/05/20 13:35:56;;;;;;;0.20;0.20;;;27.50;57.80;;;;;;4914930;29;20065;-83
2022/05/20 13:38:33;;;;;;;1.60;0.50;;;26.10;59.40;;;;;;4914749;29;20024;-82
2022/05/20 13:40:59;;;;;;;1.23;0.70;;;24.50;61.90;;;;;;4914829;29;20043;-81
2022/05/20 13:43:32;;;;;;;1.20;0.73;;;22.90;66.90;;;;;;4898395;29;20489;-83
2022/05/20 13:51:49;;;;;;;3.72;1.05;;;20.10;86.00;;;;;;4914700;29;20070;-82
2022/05/20 13:54:37;;;;;;;0.80;0.47;;;21.60;89.30;;;;;;4914403;29;20047;-83